Time;durP1;ratioP1;P1;durP2;ratioP2;P2;SDS_P1;SDS_P2;PMS_P1;PMS_P2;Temp;Humidity;BMP_temperature;BMP_pressure;BME280_temperature;BME280_humidity;BME280_pressure;Samples;Min_cycle;Max_cycle;Signal;HPM_P1;HPM_P2
2022/11/26 00:00:24;;;;;;;29.95;9.40;;;4.60;99.90;;;;;;5132745;27;20515;-47
2022/11/26 00:02:50;;;;;;;28.15;9.68;;;4.60;99.90;;;;;;5132948;27;20047;-49
2022/11/26 00:05:16;;;;;;;19.63;9.20;;;4.30;99.90;;;;;;5132557;27;20047;-50
2022/11/26 00:07:46;;;;;;;23.63;9.57;;;4.30;99.90;;;;;;5113289;27;20031;-47
2022/11/26 00:10:21;;;;;;;31.40;10.10;;;4.70;99.90;;;;;;5133001;27;20474;-46
2022/11/26 00:12:47;;;;;;;24.13;9.55;;;4.70;99.90;;;;;;5133417;27;20541;-48
2022/11/26 00:15:28;;;;;;;22.80;8.80;;;4.50;99.90;;;;;;5132836;27;20130;-46
2022/11/26 00:17:54;;;;;;;24.08;9.25;;;4.20;99.90;;;;;;5132549;27;20070;-49
2022/11/26 00:20:23;;;;;;;29.80;9.10;;;4.50;99.90;;;;;;5114533;27;20465;-47
2022/11/26 00:22:52;;;;;;;26.10;9.32;;;4.50;99.90;;;;;;5132224;27;20071;-46
2022/11/26 00:25:28;;;;;;;22.65;8.48;;;4.60;99.90;;;;;;5131986;27;20052;-48
2022/11/26 00:27:56;;;;;;;27.13;9.48;;;4.10;99.90;;;;;;5132031;27;20122;-45
2022/11/26 00:30:26;;;;;;;23.02;9.07;;;4.50;99.90;;;;;;5132499;27;20065;-49
2022/11/26 00:32:54;;;;;;;22.60;9.10;;;4.00;99.90;;;;;;5132160;27;20172;-46
2022/11/26 00:35:20;;;;;;;24.83;9.10;;;4.60;99.90;;;;;;5132586;27;20382;-46
2022/11/26 00:37:50;;;;;;;23.27;9.55;;;6.10;99.90;;;;;;5131933;27;20431;-50
2022/11/26 00:40:30;;;;;;;26.17;8.95;;;4.10;99.90;;;;;;5132464;27;20046;-49
2022/11/26 00:42:56;;;;;;;17.73;8.20;;;4.40;99.90;;;;;;5131928;27;20039;-46
2022/11/26 00:45:26;;;;;;;24.30;8.93;;;4.20;99.90;;;;;;5131475;27;20478;-47
2022/11/26 00:47:53;;;;;;;21.92;8.98;;;4.40;99.90;;;;;;5132266;27;20050;-46
2022/11/26 00:50:23;;;;;;;22.42;9.60;;;4.40;99.90;;;;;;5132185;27;20474;-48
2022/11/26 00:52:52;;;;;;;24.60;9.15;;;4.30;99.90;;;;;;5132081;27;20053;-47
2022/11/26 00:55:25;;;;;;;22.77;9.43;;;4.00;99.90;;;;;;5132042;27;20039;-47
2022/11/26 00:57:51;;;;;;;24.20;9.23;;;4.10;99.90;;;;;;5131913;27;20038;-46
2022/11/26 01:00:23;;;;;;;25.13;9.07;;;3.90;99.90;;;;;;5132014;27;20042;-50
2022/11/26 01:02:49;;;;;;;23.45;9.50;;;4.20;99.90;;;;;;5131901;27;20540;-48
2022/11/26 01:05:15;;;;;;;25.45;9.80;;;4.20;99.90;;;;;;5130750;27;20138;-48
2022/11/26 01:07:42;;;;;;;22.77;9.32;;;4.00;99.90;;;;;;5131407;27;20427;-48
2022/11/26 01:10:24;;;;;;;26.55;9.82;;;4.30;99.90;;;;;;5113230;27;20474;-48
2022/11/26 01:12:51;;;;;;;25.98;9.20;;;4.00;99.90;;;;;;5131778;27;20470;-47
2022/11/26 01:15:19;;;;;;;18.25;8.30;;;4.30;99.90;;;;;;5131551;27;20031;-46
2022/11/26 01:17:46;;;;;;;29.92;8.85;;;3.70;99.90;;;;;;5131692;27;20046;-50
2022/11/26 01:20:20;;;;;;;26.38;9.30;;;4.80;99.90;;;;;;5129796;27;20043;-46
2022/11/26 01:22:47;;;;;;;25.17;10.05;;;4.00;99.90;;;;;;5131106;27;20043;-46
2022/11/26 01:25:13;;;;;;;28.58;9.40;;;4.20;99.90;;;;;;5130952;27;20059;-47
2022/11/26 01:27:39;;;;;;;23.85;9.02;;;4.70;99.90;;;;;;5131456;27;20050;-47
2022/11/26 01:30:26;;;;;;;23.67;9.20;;;4.30;99.90;;;;;;5131374;27;20885;-45
2022/11/26 01:32:52;;;;;;;28.95;9.30;;;4.40;99.90;;;;;;5130547;27;20063;-49
2022/11/26 01:35:20;;;;;;;30.15;10.07;;;3.90;99.90;;;;;;5131250;27;20066;-48
2022/11/26 01:37:46;;;;;;;26.05;9.48;;;4.50;99.90;;;;;;5130822;27;20111;-47
2022/11/26 01:40:24;;;;;;;22.35;9.00;;;4.50;99.90;;;;;;5131331;27;20393;-45
2022/11/26 01:43:14;;;;;;;26.48;8.63;;;4.20;99.90;;;;;;5130716;27;20369;-48
2022/11/26 01:45:40;;;;;;;19.70;8.68;;;4.10;99.90;;;;;;5117119;27;20088;-47
2022/11/26 01:48:32;;;;;;;23.33;9.25;;;4.40;99.90;;;;;;5130904;27;20023;-48
2022/11/26 01:51:05;;;;;;;25.45;8.55;;;3.90;99.90;;;;;;5130761;27;20036;-49
2022/11/26 01:53:37;;;;;;;24.85;8.98;;;4.30;99.90;;;;;;5130842;27;20381;-47
2022/11/26 01:56:26;;;;;;;31.23;10.18;;;4.40;99.90;;;;;;5112447;27;20078;-46
2022/11/26 01:59:01;;;;;;;31.45;9.68;;;3.80;99.90;;;;;;5130409;27;20042;-48
2022/11/26 02:01:27;;;;;;;23.00;9.07;;;4.50;99.90;;;;;;5130930;27;20054;-45
2022/11/26 02:04:11;;;;;;;27.80;10.20;;;4.10;99.90;;;;;;5130746;27;20109;-47
2022/11/26 02:06:39;;;;;;;22.80;9.82;;;3.90;99.90;;;;;;5130051;27;20033;-46
2022/11/26 02:09:07;;;;;;;31.10;9.77;;;3.90;99.90;;;;;;5111998;27;20023;-47
2022/11/26 02:11:34;;;;;;;26.90;9.63;;;4.00;99.90;;;;;;5130180;27;20035;-45
2022/11/26 02:14:16;;;;;;;29.33;9.43;;;4.40;99.90;;;;;;5130318;27;20035;-46
2022/11/26 02:16:57;;;;;;;36.40;10.38;;;4.30;99.90;;;;;;5130234;27;20038;-48
2022/11/26 02:19:37;;;;;;;29.83;9.45;;;3.80;99.90;;;;;;5130580;27;21439;-48
2022/11/26 02:22:27;;;;;;;32.22;9.07;;;3.80;99.90;;;;;;5112219;28;20435;-47
2022/11/26 02:25:03;;;;;;;27.98;10.32;;;3.80;99.90;;;;;;5128020;27;20031;-46
2022/11/26 02:27:52;;;;;;;22.85;9.57;;;4.20;99.90;;;;;;5130035;27;20047;-46
2022/11/26 02:30:18;;;;;;;27.85;9.35;;;4.50;99.90;;;;;;5112065;28;20045;-47
2022/11/26 02:33:15;;;;;;;23.38;9.43;;;4.10;99.90;;;;;;5130237;28;20036;-49
2022/11/26 02:35:46;;;;;;;26.10;9.82;;;3.90;99.90;;;;;;5112032;28;20497;-49
2022/11/26 02:38:22;;;;;;;24.23;9.50;;;3.80;99.90;;;;;;5111284;28;20103;-51
2022/11/26 02:40:48;;;;;;;24.70;10.32;;;4.00;99.90;;;;;;5129806;28;20031;-48
2022/11/26 02:43:15;;;;;;;25.45;9.38;;;3.80;99.90;;;;;;5130338;28;20172;-48
2022/11/26 02:45:45;;;;;;;22.77;9.57;;;4.40;99.90;;;;;;5129767;28;20050;-48
2022/11/26 02:48:16;;;;;;;26.95;9.38;;;3.90;99.90;;;;;;5111237;28;20398;-47
2022/11/26 02:50:47;;;;;;;31.60;9.77;;;4.40;99.90;;;;;;5130455;28;20390;-50
2022/11/26 02:53:16;;;;;;;28.73;8.98;;;4.10;99.90;;;;;;5129674;28;20035;-47
2022/11/26 02:55:46;;;;;;;25.67;8.70;;;4.50;99.90;;;;;;5130186;28;20035;-50
2022/11/26 02:58:12;;;;;;;25.80;9.27;;;4.40;99.90;;;;;;5130020;28;20131;-49
2022/11/26 03:00:41;;;;;;;26.58;9.15;;;4.40;99.90;;;;;;5129957;28;20050;-50
2022/11/26 03:03:21;;;;;;;22.77;8.38;;;4.20;99.90;;;;;;5111605;28;20042;-48
2022/11/26 03:05:48;;;;;;;24.73;9.60;;;3.80;99.90;;;;;;5130087;28;20050;-47
2022/11/26 03:08:14;;;;;;;23.58;9.07;;;3.60;99.90;;;;;;5111271;28;20031;-49
2022/11/26 03:10:40;;;;;;;27.98;8.73;;;4.10;99.90;;;;;;5129870;28;20023;-49
2022/11/26 03:13:05;;;;;;;30.23;8.80;;;4.00;99.90;;;;;;5111269;28;20100;-48
2022/11/26 03:15:31;;;;;;;26.00;9.00;;;4.00;99.90;;;;;;5129847;28;20043;-49
2022/11/26 03:17:57;;;;;;;21.65;8.55;;;4.30;99.90;;;;;;5110343;28;20048;-48
2022/11/26 03:20:23;;;;;;;21.95;9.68;;;3.50;99.90;;;;;;5129903;28;20035;-48
2022/11/26 03:22:48;;;;;;;25.38;8.70;;;3.50;99.90;;;;;;5130459;28;20043;-50
2022/11/26 03:25:14;;;;;;;22.20;8.32;;;4.00;99.90;;;;;;5129624;28;20138;-51
2022/11/26 03:27:40;;;;;;;21.77;8.55;;;3.50;99.90;;;;;;5130769;27;20446;-47
2022/11/26 03:30:06;;;;;;;19.52;8.18;;;3.40;99.90;;;;;;5133410;27;20043;-47
2022/11/26 03:32:32;;;;;;;25.83;9.45;;;4.10;99.90;;;;;;5114959;27;20039;-48
2022/11/26 03:34:58;;;;;;;27.00;8.85;;;4.10;99.90;;;;;;5133842;27;20058;-47
2022/11/26 03:37:24;;;;;;;28.05;8.80;;;3.40;99.90;;;;;;5133100;27;20056;-47
2022/11/26 03:39:50;;;;;;;22.98;8.60;;;3.80;99.90;;;;;;5133555;27;20519;-48
2022/11/26 03:42:15;;;;;;;26.90;9.27;;;3.70;99.90;;;;;;5133400;27;20043;-48
2022/11/26 03:44:41;;;;;;;25.30;9.40;;;3.30;99.90;;;;;;5114879;27;20122;-47
2022/11/26 03:47:07;;;;;;;25.02;8.98;;;3.20;99.90;;;;;;5133487;27;20375;-47
2022/11/26 03:49:32;;;;;;;23.30;9.80;;;3.90;99.90;;;;;;5133315;27;20027;-46
2022/11/26 03:51:58;;;;;;;29.42;10.88;;;3.90;99.90;;;;;;5133153;27;20475;-51
2022/11/26 03:54:24;;;;;;;26.13;10.18;;;3.40;99.90;;;;;;5114567;27;20039;-48
2022/11/26 03:56:49;;;;;;;28.38;10.27;;;3.60;99.90;;;;;;5133044;27;20039;-48
2022/11/26 03:59:15;;;;;;;24.10;9.77;;;4.30;99.90;;;;;;5114756;27;20047;-48
2022/11/26 04:01:41;;;;;;;20.58;9.73;;;3.20;99.90;;;;;;5133097;27;20087;-48
2022/11/26 04:04:06;;;;;;;23.33;9.30;;;4.00;99.90;;;;;;5133249;27;20042;-51
2022/11/26 04:06:32;;;;;;;32.83;10.05;;;3.40;99.90;;;;;;5132853;27;20027;-48
2022/11/26 04:08:57;;;;;;;26.15;9.80;;;3.70;99.90;;;;;;5132330;27;20039;-50
2022/11/26 04:11:23;;;;;;;33.42;11.80;;;4.10;99.90;;;;;;5132985;27;20109;-50
2022/11/26 04:13:49;;;;;;;25.60;10.23;;;3.50;99.90;;;;;;5114777;27;20058;-47
2022/11/26 04:16:14;;;;;;;32.15;11.02;;;4.10;99.90;;;;;;5133133;27;20031;-48
2022/11/26 04:18:40;;;;;;;31.58;11.75;;;4.10;99.90;;;;;;5132792;27;20035;-51
2022/11/26 04:21:07;;;;;;;29.98;11.07;;;4.00;99.90;;;;;;5114373;27;20031;-52
2022/11/26 04:23:33;;;;;;;27.98;11.82;;;3.50;99.90;;;;;;5132819;27;20085;-50
2022/11/26 04:25:59;;;;;;;33.75;12.02;;;3.90;99.90;;;;;;5113874;27;20729;-49
2022/11/26 04:28:25;;;;;;;27.55;11.45;;;4.00;99.90;;;;;;5132081;27;20278;-46
2022/11/26 04:30:50;;;;;;;25.88;11.68;;;4.00;99.90;;;;;;5132550;27;20115;-47
2022/11/26 04:33:16;;;;;;;28.17;10.50;;;3.40;99.90;;;;;;5132495;27;20510;-47
2022/11/26 04:35:42;;;;;;;34.15;11.27;;;4.00;99.90;;;;;;5113624;27;20126;-46
2022/11/26 04:38:07;;;;;;;25.92;11.23;;;3.50;99.90;;;;;;5131461;27;20448;-47
2022/11/26 04:40:33;;;;;;;29.10;11.18;;;4.20;99.90;;;;;;5132489;27;20126;-49
2022/11/26 04:42:59;;;;;;;26.95;11.18;;;4.10;99.90;;;;;;5132256;27;20356;-50
2022/11/26 04:45:25;;;;;;;33.72;11.40;;;3.50;99.90;;;;;;5113828;27;20133;-47
2022/11/26 04:47:50;;;;;;;30.25;12.10;;;4.10;99.90;;;;;;5132821;27;20439;-47
2022/11/26 04:50:16;;;;;;;28.38;11.00;;;3.70;99.90;;;;;;5132707;27;20023;-49
2022/11/26 04:52:42;;;;;;;31.38;11.65;;;4.10;99.90;;;;;;5132107;27;20042;-46
2022/11/26 04:55:08;;;;;;;29.75;11.95;;;4.10;99.90;;;;;;5131863;27;20071;-48
2022/11/26 04:57:34;;;;;;;29.67;11.77;;;3.70;99.90;;;;;;5132061;27;20031;-49
2022/11/26 04:59:59;;;;;;;32.50;11.93;;;3.40;99.90;;;;;;5132028;27;20038;-49
2022/11/26 05:02:25;;;;;;;29.10;11.55;;;3.60;99.90;;;;;;5131730;27;20046;-49
2022/11/26 05:04:51;;;;;;;37.80;12.45;;;3.70;99.90;;;;;;5131640;27;20039;-48
2022/11/26 05:07:17;;;;;;;29.38;12.15;;;4.00;99.90;;;;;;5131366;27;20067;-49
2022/11/26 05:09:42;;;;;;;33.25;11.43;;;4.00;99.90;;;;;;5131722;27;20063;-48
2022/11/26 05:12:10;;;;;;;29.52;12.00;;;3.90;99.90;;;;;;5131542;27;20042;-49
2022/11/26 05:14:36;;;;;;;35.40;12.38;;;4.20;99.90;;;;;;5128372;27;20097;-48
2022/11/26 05:17:01;;;;;;;29.90;12.70;;;3.90;99.90;;;;;;5112470;27;20378;-49
2022/11/26 05:19:27;;;;;;;31.52;11.18;;;4.30;99.90;;;;;;5131297;27;20087;-50
2022/11/26 05:21:53;;;;;;;29.02;11.55;;;3.60;99.90;;;;;;5132107;27;20803;-50
2022/11/26 05:24:18;;;;;;;32.25;11.32;;;3.40;99.90;;;;;;5131512;27;20031;-47
2022/11/26 05:26:44;;;;;;;30.77;12.90;;;3.60;99.90;;;;;;5130966;27;20111;-49
2022/11/26 05:29:10;;;;;;;30.85;12.18;;;3.90;99.90;;;;;;5113164;27;20401;-46
2022/11/26 05:31:36;;;;;;;30.02;12.75;;;3.70;99.90;;;;;;5130963;27;20035;-47
2022/11/26 05:34:02;;;;;;;31.50;12.15;;;3.90;99.90;;;;;;5113519;27;20058;-46
2022/11/26 05:36:28;;;;;;;27.55;12.77;;;3.30;99.90;;;;;;5131819;27;20393;-47
2022/11/26 05:38:56;;;;;;;36.13;12.80;;;3.30;99.90;;;;;;5131284;27;20478;-47
2022/11/26 05:41:21;;;;;;;36.47;12.70;;;4.20;99.90;;;;;;5130635;27;20035;-51
2022/11/26 05:43:47;;;;;;;27.40;12.30;;;3.20;99.90;;;;;;5130979;27;20060;-48
2022/11/26 05:46:15;;;;;;;34.53;12.95;;;3.30;99.90;;;;;;5112277;27;20550;-46
2022/11/26 05:48:40;;;;;;;32.10;13.80;;;3.70;99.90;;;;;;5130794;27;20023;-49
2022/11/26 05:51:06;;;;;;;32.47;13.25;;;3.90;99.90;;;;;;5111899;27;20035;-48
2022/11/26 05:53:32;;;;;;;28.88;12.43;;;3.20;99.90;;;;;;5112539;27;20115;-48
2022/11/26 05:55:58;;;;;;;26.77;12.27;;;3.20;99.90;;;;;;5130870;27;20035;-48
2022/11/26 05:58:24;;;;;;;32.60;13.25;;;3.30;99.90;;;;;;5131399;27;20047;-51
2022/11/26 06:00:49;;;;;;;32.97;13.50;;;3.80;99.90;;;;;;5131187;27;20081;-48
2022/11/26 06:03:15;;;;;;;28.40;13.10;;;3.50;99.90;;;;;;5112109;27;20506;-48
2022/11/26 06:05:41;;;;;;;31.40;13.68;;;3.40;99.90;;;;;;5112441;27;20087;-48
2022/11/26 06:08:06;;;;;;;35.17;13.48;;;3.90;99.90;;;;;;5130246;27;20049;-49
2022/11/26 06:10:32;;;;;;;30.88;12.02;;;4.20;99.90;;;;;;5130463;27;20035;-50
2022/11/26 06:12:58;;;;;;;28.83;13.70;;;3.50;99.90;;;;;;5130475;27;20114;-48
2022/11/26 06:15:23;;;;;;;32.55;13.75;;;3.90;99.90;;;;;;5130638;27;20034;-51
2022/11/26 06:17:49;;;;;;;29.20;12.60;;;3.40;99.90;;;;;;5128548;27;20053;-49
2022/11/26 06:20:15;;;;;;;31.77;13.50;;;3.70;99.90;;;;;;5112025;28;20031;-46
2022/11/26 06:22:42;;;;;;;34.25;12.52;;;3.30;99.90;;;;;;5130955;27;20035;-48
2022/11/26 06:25:10;;;;;;;33.97;13.50;;;3.20;99.90;;;;;;5130778;27;20085;-49
2022/11/26 06:27:36;;;;;;;30.83;12.95;;;3.50;99.90;;;;;;5128915;27;20051;-48
2022/11/26 06:30:04;;;;;;;27.40;13.50;;;3.80;99.90;;;;;;5130597;27;20374;-48
2022/11/26 06:32:31;;;;;;;39.40;13.57;;;3.40;99.90;;;;;;5130227;28;20065;-45
2022/11/26 06:34:57;;;;;;;29.35;13.43;;;4.10;99.90;;;;;;5130085;28;20074;-46
2022/11/26 06:37:23;;;;;;;29.90;12.63;;;3.40;99.90;;;;;;5129612;28;20035;-46
2022/11/26 06:39:49;;;;;;;34.28;12.73;;;3.10;99.90;;;;;;5111969;28;20096;-47
2022/11/26 06:42:14;;;;;;;36.55;12.30;;;3.10;99.90;;;;;;5130277;28;20039;-47
2022/11/26 06:44:40;;;;;;;33.20;12.68;;;3.80;99.90;;;;;;5129935;28;20068;-47
2022/11/26 06:47:09;;;;;;;34.92;13.48;;;3.10;99.90;;;;;;5130844;28;20035;-49
2022/11/26 06:49:35;;;;;;;34.42;12.80;;;3.30;99.90;;;;;;5130768;28;20246;-48
2022/11/26 06:52:01;;;;;;;36.30;13.65;;;3.30;99.90;;;;;;5130180;28;20470;-48
2022/11/26 06:54:26;;;;;;;37.63;13.40;;;3.60;99.90;;;;;;5130157;28;20039;-47
2022/11/26 06:56:52;;;;;;;33.15;13.07;;;3.80;99.90;;;;;;5130167;28;20045;-47
2022/11/26 06:59:18;;;;;;;40.88;14.15;;;3.10;99.90;;;;;;5111747;28;20121;-49
2022/11/26 07:01:43;;;;;;;34.10;14.82;;;3.20;99.90;;;;;;5113972;27;20422;-47
2022/11/26 07:04:10;;;;;;;39.03;14.43;;;3.80;99.90;;;;;;5134764;27;20117;-47
2022/11/26 07:06:36;;;;;;;35.80;13.93;;;3.80;99.90;;;;;;5134213;27;20039;-46
2022/11/26 07:09:07;;;;;;;37.67;14.35;;;3.90;99.90;;;;;;5114792;27;20401;-47
2022/11/26 07:11:33;;;;;;;34.60;13.40;;;4.20;99.90;;;;;;5134108;27;20486;-48
2022/11/26 07:14:00;;;;;;;43.35;14.07;;;3.70;99.90;;;;;;5133826;27;20118;-46
2022/11/26 07:16:26;;;;;;;40.95;14.07;;;3.90;99.90;;;;;;5134378;27;20456;-48
2022/11/26 07:18:54;;;;;;;36.25;13.70;;;3.90;99.90;;;;;;5134579;27;20043;-48
2022/11/26 07:21:21;;;;;;;32.67;12.48;;;3.50;99.90;;;;;;5115702;27;20394;-48
2022/11/26 07:23:47;;;;;;;36.28;14.15;;;3.70;99.90;;;;;;5133596;27;20072;-50
2022/11/26 07:26:14;;;;;;;30.95;13.90;;;3.30;99.90;;;;;;5133221;27;20366;-46
2022/11/26 07:28:40;;;;;;;34.97;14.05;;;3.50;99.90;;;;;;5115075;27;20054;-47
2022/11/26 07:31:10;;;;;;;37.40;14.00;;;3.70;99.90;;;;;;5133446;27;20043;-48
2022/11/26 07:33:37;;;;;;;33.70;13.77;;;3.60;99.90;;;;;;5133886;27;20035;-47
2022/11/26 07:36:06;;;;;;;36.55;14.60;;;4.10;99.90;;;;;;5132686;27;20448;-49
2022/11/26 07:38:32;;;;;;;32.42;14.88;;;3.90;99.90;;;;;;5133371;27;20393;-50
2022/11/26 07:41:08;;;;;;;39.20;15.80;;;3.60;99.90;;;;;;5131875;27;20039;-50
2022/11/26 07:43:38;;;;;;;39.17;15.20;;;3.60;99.90;;;;;;5133066;27;20039;-49
2022/11/26 07:46:06;;;;;;;37.75;14.25;;;4.10;99.90;;;;;;5133251;27;20057;-49
2022/11/26 07:48:32;;;;;;;40.03;14.60;;;3.50;99.90;;;;;;5133133;27;20042;-49
2022/11/26 07:51:00;;;;;;;34.83;13.75;;;4.20;99.90;;;;;;5133312;27;20042;-47
2022/11/26 07:53:30;;;;;;;44.40;15.80;;;3.40;99.90;;;;;;5133098;27;20045;-46
2022/11/26 07:55:57;;;;;;;44.72;17.10;;;4.10;99.90;;;;;;5133302;27;20039;-46
2022/11/26 07:58:23;;;;;;;44.28;15.82;;;3.80;99.90;;;;;;5129374;27;20035;-46
2022/11/26 08:00:49;;;;;;;43.45;16.33;;;4.20;99.90;;;;;;5128525;27;20087;-46
2022/11/26 08:03:15;;;;;;;36.40;15.38;;;4.10;99.90;;;;;;5125173;27;20043;-46
2022/11/26 08:05:41;;;;;;;47.05;15.70;;;4.10;99.90;;;;;;5128680;27;20039;-47
2022/11/26 08:08:08;;;;;;;36.92;14.82;;;4.60;99.90;;;;;;5127741;27;20035;-48
2022/11/26 08:10:34;;;;;;;43.88;16.25;;;3.60;99.90;;;;;;5125119;27;20035;-46
2022/11/26 08:13:00;;;;;;;41.65;15.50;;;3.70;99.90;;;;;;5126637;27;20053;-46
2022/11/26 08:15:25;;;;;;;44.90;17.35;;;3.80;99.90;;;;;;5128193;27;20039;-48
2022/11/26 08:17:55;;;;;;;37.25;16.48;;;3.70;99.90;;;;;;5124768;27;20042;-48
2022/11/26 08:20:21;;;;;;;44.92;16.85;;;4.20;99.90;;;;;;5127367;27;20145;-47
2022/11/26 08:22:47;;;;;;;46.20;17.17;;;3.80;99.90;;;;;;5128450;27;20063;-49
2022/11/26 08:25:13;;;;;;;37.35;16.33;;;3.90;99.90;;;;;;5124136;27;20150;-46
2022/11/26 08:27:39;;;;;;;45.08;17.58;;;4.70;99.90;;;;;;5126620;27;20044;-47
2022/11/26 08:30:06;;;;;;;46.60;18.38;;;4.60;99.90;;;;;;5127507;27;20046;-48
2022/11/26 08:32:32;;;;;;;48.78;18.80;;;4.80;99.90;;;;;;5124279;27;20043;-50
2022/11/26 08:34:58;;;;;;;44.15;18.08;;;4.20;99.90;;;;;;5128297;27;20527;-49
2022/11/26 08:37:24;;;;;;;47.28;19.70;;;4.70;99.90;;;;;;5125523;27;20047;-48
2022/11/26 08:39:49;;;;;;;46.05;17.55;;;4.50;99.90;;;;;;5113103;27;20032;-49
2022/11/26 08:42:15;;;;;;;44.13;18.17;;;4.90;99.90;;;;;;5120187;27;20092;-47
2022/11/26 08:44:41;;;;;;;46.97;19.48;;;4.10;99.90;;;;;;5117969;27;20036;-47
2022/11/26 08:47:07;;;;;;;38.05;18.85;;;4.30;99.90;;;;;;5120741;27;20034;-48
2022/11/26 08:49:33;;;;;;;47.05;18.73;;;4.50;99.90;;;;;;5118805;27;20493;-47
2022/11/26 08:51:58;;;;;;;56.17;20.10;;;5.00;99.90;;;;;;5119055;27;20104;-46
2022/11/26 08:54:24;;;;;;;45.60;19.98;;;5.10;99.90;;;;;;5120352;27;20027;-50
2022/11/26 08:56:50;;;;;;;54.95;21.60;;;4.70;99.90;;;;;;5119299;27;20563;-52
2022/11/26 08:59:18;;;;;;;45.72;20.45;;;5.00;99.90;;;;;;5120825;27;20076;-48
2022/11/26 09:01:44;;;;;;;43.55;20.15;;;4.70;99.90;;;;;;5102778;27;20035;-46
2022/11/26 09:04:10;;;;;;;46.22;20.98;;;5.10;99.90;;;;;;5101156;27;20462;-47
2022/11/26 09:06:36;;;;;;;51.50;23.30;;;5.20;99.90;;;;;;5121362;27;20091;-46
2022/11/26 09:09:12;;;;;;;42.67;21.30;;;5.30;99.90;;;;;;5121367;27;20039;-47
2022/11/26 09:11:39;;;;;;;55.67;22.63;;;4.80;99.90;;;;;;5120558;27;20034;-45
2022/11/26 09:14:05;;;;;;;55.97;23.58;;;5.40;99.90;;;;;;5121723;27;20031;-45
2022/11/26 09:16:31;;;;;;;43.45;20.88;;;4.70;99.90;;;;;;5103412;27;20054;-46
2022/11/26 09:19:01;;;;;;;53.88;22.80;;;5.60;99.90;;;;;;5121901;27;20078;-47
2022/11/26 09:21:27;;;;;;;43.78;23.35;;;5.60;99.90;;;;;;5102870;27;20047;-46
2022/11/26 09:23:53;;;;;;;52.17;24.08;;;5.30;99.90;;;;;;5121740;27;20081;-47
2022/11/26 09:26:20;;;;;;;52.50;23.75;;;5.40;99.90;;;;;;5119817;27;20429;-48
2022/11/26 09:28:49;;;;;;;49.75;24.55;;;5.90;99.90;;;;;;5121984;27;20070;-46
2022/11/26 09:31:15;;;;;;;55.80;24.58;;;5.50;99.90;;;;;;5121003;27;20110;-47
2022/11/26 09:33:41;;;;;;;52.75;22.95;;;5.20;99.90;;;;;;5121584;27;20504;-47
2022/11/26 09:36:09;;;;;;;61.92;25.77;;;5.70;99.90;;;;;;5121914;27;20045;-46
2022/11/26 09:38:35;;;;;;;53.88;24.67;;;6.00;99.90;;;;;;5120556;27;20039;-48
2022/11/26 09:41:09;;;;;;;54.55;26.02;;;5.50;99.90;;;;;;5121833;27;20051;-45
2022/11/26 09:44:24;;;;;;;62.17;26.83;;;5.50;99.90;;;;;;5120325;27;20506;-44
2022/11/26 09:46:55;;;;;;;56.20;24.80;;;5.80;99.90;;;;;;5094919;27;20125;-47
2022/11/26 09:49:22;;;;;;;59.95;24.23;;;6.20;99.90;;;;;;5121463;27;20066;-44
2022/11/26 09:51:51;;;;;;;50.40;24.50;;;5.90;99.90;;;;;;5121064;27;20035;-46
2022/11/26 09:54:21;;;;;;;52.60;25.65;;;6.20;99.90;;;;;;5121629;27;20061;-45
2022/11/26 09:56:52;;;;;;;54.45;25.15;;;6.20;99.90;;;;;;5120465;27;20509;-46
2022/11/26 09:59:21;;;;;;;53.83;26.80;;;6.30;99.90;;;;;;5121452;27;20497;-47
2022/11/26 10:01:47;;;;;;;54.13;26.15;;;5.60;99.90;;;;;;5120224;27;20163;-45
2022/11/26 10:04:22;;;;;;;65.28;27.48;;;6.20;99.90;;;;;;5116393;27;20039;-46
2022/11/26 10:06:48;;;;;;;50.55;24.10;;;5.90;99.90;;;;;;5115979;27;20035;-46
2022/11/26 10:09:56;;;;;;;50.03;26.20;;;6.00;99.90;;;;;;5117867;27;20429;-48
2022/11/26 10:12:40;;;;;;;59.33;27.25;;;5.90;99.90;;;;;;5103667;27;20058;-46
2022/11/26 10:15:17;;;;;;;51.88;27.05;;;6.60;99.90;;;;;;5112892;27;20073;-46
2022/11/26 10:18:03;;;;;;;60.28;27.98;;;6.90;99.90;;;;;;5116235;27;20509;-46
2022/11/26 10:20:32;;;;;;;54.33;26.85;;;6.10;99.90;;;;;;5119789;27;20680;-49
2022/11/26 10:23:01;;;;;;;53.33;25.67;;;6.00;99.90;;;;;;5098946;28;20035;-47
2022/11/26 10:25:32;;;;;;;63.35;28.38;;;6.10;99.90;;;;;;5123865;28;20051;-48
2022/11/26 10:27:59;;;;;;;56.50;27.27;;;7.00;99.90;;;;;;5124887;28;20071;-45
2022/11/26 10:30:27;;;;;;;49.78;26.30;;;6.60;99.90;;;;;;5104561;28;20122;-45
2022/11/26 10:32:54;;;;;;;59.75;26.60;;;6.10;99.90;;;;;;5122176;27;20036;-47
2022/11/26 10:35:26;;;;;;;55.75;26.17;;;6.80;99.90;;;;;;5119649;28;20043;-45
2022/11/26 10:37:54;;;;;;;51.28;26.58;;;6.50;99.90;;;;;;5116172;28;20203;-46
2022/11/26 10:40:26;;;;;;;56.78;28.10;;;6.30;99.90;;;;;;5120524;28;20177;-46
2022/11/26 10:43:02;;;;;;;58.10;25.67;;;6.30;99.90;;;;;;5120773;28;20088;-47
2022/11/26 10:45:46;;;;;;;52.70;26.50;;;7.00;99.90;;;;;;5119452;28;20501;-45
2022/11/26 10:48:27;;;;;;;54.92;26.63;;;6.70;99.90;;;;;;5123389;28;20079;-45
2022/11/26 10:51:05;;;;;;;52.67;25.70;;;6.40;99.90;;;;;;5120572;28;20088;-47
2022/11/26 10:53:48;;;;;;;51.03;26.00;;;6.80;99.90;;;;;;5125383;28;20027;-49
2022/11/26 10:56:19;;;;;;;62.33;25.58;;;6.40;99.90;;;;;;5125911;28;20054;-50
2022/11/26 10:58:46;;;;;;;54.00;26.48;;;6.50;99.90;;;;;;5123969;28;20040;-53
2022/11/26 11:01:14;;;;;;;54.70;26.45;;;6.70;99.90;;;;;;5121454;28;20083;-49
2022/11/26 11:03:57;;;;;;;53.17;23.63;;;6.70;99.90;;;;;;5127190;28;20039;-48
2022/11/26 11:06:26;;;;;;;54.92;25.50;;;7.10;99.90;;;;;;5104397;28;20036;-49
2022/11/26 11:08:53;;;;;;;59.92;26.00;;;6.90;99.90;;;;;;5124729;28;20043;-50
2022/11/26 11:11:28;;;;;;;51.58;24.88;;;6.80;99.90;;;;;;5110085;28;20034;-48
2022/11/26 11:13:54;;;;;;;52.45;23.88;;;6.80;99.90;;;;;;5126589;28;20126;-49
2022/11/26 11:16:29;;;;;;;52.20;25.50;;;6.80;99.90;;;;;;5125737;28;20103;-47
2022/11/26 11:18:55;;;;;;;49.63;25.63;;;6.90;99.90;;;;;;5129060;28;20083;-49
2022/11/26 11:21:21;;;;;;;47.92;23.70;;;6.90;99.90;;;;;;5129568;28;20043;-47
2022/11/26 11:23:47;;;;;;;49.13;23.95;;;7.60;99.90;;;;;;5129118;28;20412;-47
2022/11/26 11:26:22;;;;;;;49.92;24.25;;;7.50;99.90;;;;;;5127781;28;20056;-48
2022/11/26 11:28:53;;;;;;;50.45;24.73;;;6.80;99.90;;;;;;5129134;28;20039;-46
2022/11/26 11:31:22;;;;;;;50.75;24.90;;;7.50;99.90;;;;;;5129068;28;20039;-48
2022/11/26 11:33:49;;;;;;;52.75;24.65;;;7.80;99.90;;;;;;5129175;28;20522;-49
2022/11/26 11:36:25;;;;;;;48.03;23.27;;;7.50;99.90;;;;;;5129570;28;20056;-47
2022/11/26 11:38:58;;;;;;;47.33;23.67;;;7.90;99.90;;;;;;5129429;28;20042;-48
2022/11/26 11:41:31;;;;;;;48.67;23.50;;;8.00;99.90;;;;;;5129036;28;20031;-50
2022/11/26 11:44:13;;;;;;;41.30;21.73;;;7.70;99.90;;;;;;5127786;28;20084;-47
2022/11/26 11:47:06;;;;;;;46.35;21.73;;;7.70;99.90;;;;;;5122972;28;20118;-46
2022/11/26 11:49:58;;;;;;;47.88;20.85;;;7.30;99.90;;;;;;5121462;27;20035;-48
2022/11/26 11:52:59;;;;;;;50.38;21.40;;;7.60;99.90;;;;;;5095257;27;20043;-47
2022/11/26 11:55:41;;;;;;;41.55;21.25;;;7.40;99.90;;;;;;5096271;27;20294;-47
2022/11/26 11:58:45;;;;;;;45.08;21.30;;;7.50;99.90;;;;;;5128372;27;20042;-48
2022/11/26 12:01:30;;;;;;;34.95;19.98;;;7.50;99.90;;;;;;5105125;27;20418;-49
2022/11/26 12:04:07;;;;;;;43.65;20.67;;;7.40;99.90;;;;;;5127459;27;20086;-49
2022/11/26 12:07:20;;;;;;;37.22;20.20;;;8.00;99.90;;;;;;5122647;27;20104;-47
2022/11/26 12:09:55;;;;;;;42.28;20.20;;;7.60;99.90;;;;;;5123465;27;20118;-50
2022/11/26 12:12:29;;;;;;;47.83;20.63;;;7.40;99.90;;;;;;5121620;27;20031;-47
2022/11/26 12:15:10;;;;;;;45.60;20.08;;;8.10;99.90;;;;;;5118183;27;20035;-51
2022/11/26 12:17:42;;;;;;;40.95;20.60;;;8.10;99.90;;;;;;5119385;27;20040;-49
2022/11/26 12:20:25;;;;;;;43.83;20.95;;;7.90;99.90;;;;;;5120377;27;20118;-50
2022/11/26 12:23:05;;;;;;;48.38;22.55;;;7.70;99.90;;;;;;5120863;27;20073;-47
2022/11/26 12:25:36;;;;;;;43.33;21.08;;;7.80;99.90;;;;;;5125102;27;20043;-49
2022/11/26 12:28:13;;;;;;;41.97;20.52;;;8.30;99.90;;;;;;5131886;27;20077;-50
2022/11/26 12:31:01;;;;;;;44.38;20.80;;;8.00;99.90;;;;;;5128340;27;20103;-51
2022/11/26 12:33:32;;;;;;;42.90;21.35;;;8.60;99.90;;;;;;5106353;27;20129;-49
2022/11/26 12:36:10;;;;;;;45.28;20.38;;;8.20;99.90;;;;;;5130909;27;20468;-48
2022/11/26 12:38:44;;;;;;;34.17;18.67;;;8.40;99.90;;;;;;5131155;27;20043;-46
2022/11/26 12:41:40;;;;;;;34.27;17.60;;;8.90;99.90;;;;;;5113276;27;20081;-48
2022/11/26 12:44:44;;;;;;;38.30;17.58;;;8.60;99.90;;;;;;5128409;27;20281;-47
2022/11/26 12:47:35;;;;;;;30.40;15.65;;;9.10;99.90;;;;;;5130563;27;20269;-47
2022/11/26 12:50:14;;;;;;;36.72;16.05;;;8.90;99.90;;;;;;5131425;27;20155;-47
2022/11/26 12:53:20;;;;;;;35.85;15.43;;;9.00;99.90;;;;;;5113567;27;20050;-49
2022/11/26 12:56:05;;;;;;;31.92;14.63;;;8.70;99.90;;;;;;5131556;27;20047;-48